Terminal Aerodrome Forecast
Issued by NWS

Home | Current Version | Previous Version | Text Only | Print | Product List | Glossary On
Versions: 1 2 3 4 5 6 7 8 9 10 11 12 13 14 15 16 17 18 19 20 21 22 23 24 25 26 27 28 29 30 31 32 33
000
FTPA31 PHFO 071700
TAFLNY
TAF
PHNY 071721Z 0718/0818 06010KT P6SM FEW025
     FM072000 05014G22KT P6SM SCT025 BKN035
     FM080200 05020G28KT P6SM SCT025 BKN035
     FM080500 05014G22KT P6SM VCSH SCT025 BKN035
      AMD NOT SKED=

USA.gov is the U.S. government's official web portal to all federal, state and local government web resources and services.